createdAt,value
2019-03-31T00:00:10.021Z,6.51
2019-03-31T00:01:10.066Z,6.63
2019-03-31T00:02:10.104Z,6.80
2019-03-31T00:03:10.150Z,6.95
2019-03-31T00:04:10.213Z,7.12
2019-03-31T00:05:10.312Z,7.22
2019-03-31T00:06:10.345Z,7.34
2019-03-31T00:07:10.327Z,7.41
2019-03-31T00:08:10.368Z,7.38
2019-03-31T00:09:10.442Z,7.40
2019-03-31T00:10:10.460Z,7.40
2019-03-31T00:11:10.508Z,7.27
2019-03-31T00:12:10.543Z,7.29
2019-03-31T00:13:10.592Z,7.26
2019-03-31T00:14:10.657Z,7.29
2019-03-31T00:15:10.695Z,7.45
2019-03-31T00:16:10.723Z,7.50
2019-03-31T00:17:10.770Z,7.45
2019-03-31T00:18:10.812Z,7.53
2019-03-31T00:19:10.877Z,7.47
2019-03-31T00:20:10.924Z,7.45
2019-03-31T00:21:10.953Z,7.47
2019-03-31T00:22:10.990Z,7.42
2019-03-31T00:23:11.030Z,7.29
2019-03-31T00:24:11.077Z,7.20
2019-03-31T00:25:11.136Z,7.16
2019-03-31T00:26:11.183Z,6.91
2019-03-31T00:27:11.213Z,6.91
2019-03-31T00:28:11.257Z,6.79
2019-03-31T00:29:11.292Z,6.79
2019-03-31T00:30:11.360Z,6.62
2019-03-31T00:31:21.458Z,6.61
2019-03-31T00:32:11.427Z,6.62
2019-03-31T00:33:11.471Z,6.68
2019-03-31T00:34:11.519Z,6.79
2019-03-31T00:35:11.587Z,6.81
2019-03-31T00:36:11.602Z,6.83
2019-03-31T00:37:11.646Z,6.95
2019-03-31T00:38:11.694Z,6.91
2019-03-31T00:39:11.742Z,7.04
2019-03-31T00:40:11.802Z,7.08
2019-03-31T00:41:11.847Z,7.24
2019-03-31T00:42:11.865Z,7.27
2019-03-31T00:43:11.918Z,7.26
2019-03-31T00:44:11.960Z,7.22
2019-03-31T00:45:12.024Z,7.23
2019-03-31T00:46:12.064Z,7.22
2019-03-31T00:47:12.132Z,7.23
2019-03-31T00:48:12.130Z,7.13
2019-03-31T00:49:12.188Z,7.15
2019-03-31T00:50:12.218Z,6.99
2019-03-31T00:51:12.291Z,6.95
2019-03-31T00:52:12.305Z,6.99
2019-03-31T00:53:12.356Z,6.87
2019-03-31T00:54:12.397Z,6.73
2019-03-31T00:55:12.456Z,6.73
2019-03-31T00:56:12.504Z,6.76
2019-03-31T00:57:12.524Z,6.79
2019-03-31T00:58:12.574Z,6.71
2019-03-31T00:59:12.618Z,6.73
2019-03-31T01:00:12.692Z,6.83
2019-03-31T01:01:12.729Z,6.83
2019-03-31T01:02:12.747Z,6.80
2019-03-31T01:03:12.800Z,6.83
2019-03-31T01:04:12.842Z,6.77
2019-03-31T01:05:12.879Z,6.79
2019-03-31T01:06:12.943Z,6.83
2019-03-31T01:07:12.976Z,6.84
2019-03-31T01:08:13.022Z,6.81
2019-03-31T01:09:13.060Z,6.79
2019-03-31T01:10:13.103Z,6.77
2019-03-31T01:11:13.170Z,6.84
2019-03-31T01:12:13.188Z,6.76
2019-03-31T01:13:13.233Z,6.77
2019-03-31T01:14:13.288Z,6.66
2019-03-31T01:15:13.323Z,6.63
2019-03-31T01:16:13.394Z,6.61
2019-03-31T01:17:13.410Z,6.68
2019-03-31T01:18:13.454Z,6.53
2019-03-31T01:19:13.502Z,6.47
2019-03-31T01:20:13.540Z,6.44
2019-03-31T01:21:13.609Z,6.40
2019-03-31T01:22:13.646Z,6.35
2019-03-31T01:23:13.674Z,6.25
2019-03-31T01:24:13.713Z,6.19
2019-03-31T01:25:13.758Z,6.19
2019-03-31T01:26:13.843Z,6.13
2019-03-31T01:27:13.847Z,6.19
2019-03-31T01:28:13.890Z,6.10
2019-03-31T01:29:13.937Z,6.03
2019-03-31T01:30:13.981Z,6.07
2019-03-31T01:31:14.042Z,6.04
2019-03-31T01:32:14.087Z,5.93
2019-03-31T01:33:14.110Z,5.89
2019-03-31T01:34:14.154Z,5.91
2019-03-31T01:35:14.204Z,5.86
2019-03-31T01:36:14.239Z,5.85
2019-03-31T01:37:14.303Z,5.85
2019-03-31T01:38:14.344Z,5.77
2019-03-31T01:39:14.373Z,5.74
2019-03-31T01:40:14.417Z,5.74
2019-03-31T01:41:14.470Z,5.68
2019-03-31T01:42:14.524Z,5.63
2019-03-31T01:43:14.569Z,5.70
2019-03-31T01:44:14.588Z,5.66
2019-03-31T01:45:14.646Z,5.60
2019-03-31T01:46:14.678Z,5.63
2019-03-31T01:47:14.740Z,5.55
2019-03-31T01:48:14.783Z,5.56
2019-03-31T01:49:14.809Z,5.52
2019-03-31T01:50:14.858Z,5.52
2019-03-31T01:51:14.901Z,5.43
2019-03-31T01:52:14.956Z,5.25
2019-03-31T01:53:14.979Z,5.30
2019-03-31T01:54:15.024Z,5.22
2019-03-31T01:55:15.071Z,5.07
2019-03-31T01:56:15.108Z,5.04
2019-03-31T01:57:15.182Z,5.23
2019-03-31T01:58:15.216Z,5.17
2019-03-31T01:59:15.241Z,5.28
2019-03-31T02:00:15.293Z,5.25
2019-03-31T02:01:15.328Z,5.30
2019-03-31T02:02:15.370Z,5.37
2019-03-31T02:03:15.439Z,5.32
2019-03-31T02:04:15.454Z,5.38
2019-03-31T02:05:15.507Z,5.37
2019-03-31T02:06:15.542Z,5.37
2019-03-31T02:07:15.586Z,5.37
2019-03-31T02:08:15.647Z,5.40
2019-03-31T02:09:15.673Z,5.38
2019-03-31T02:10:15.712Z,5.35
2019-03-31T02:11:15.760Z,5.28
2019-03-31T02:12:15.803Z,5.35
2019-03-31T02:13:15.860Z,5.32
2019-03-31T02:14:15.885Z,5.28
2019-03-31T02:15:15.935Z,5.23
2019-03-31T02:16:15.987Z,5.32
2019-03-31T02:17:16.017Z,5.23
2019-03-31T02:18:16.087Z,5.30
2019-03-31T02:19:16.123Z,5.16
2019-03-31T02:20:16.144Z,5.25
2019-03-31T02:21:16.186Z,5.16
2019-03-31T02:22:16.229Z,5.25
2019-03-31T02:23:16.297Z,5.20
2019-03-31T02:24:16.322Z,5.20
2019-03-31T02:25:16.361Z,5.17
2019-03-31T02:26:16.405Z,5.20
2019-03-31T02:27:16.446Z,5.20
2019-03-31T02:28:16.508Z,5.19
2019-03-31T02:29:16.551Z,5.23
2019-03-31T02:30:16.579Z,5.20
2019-03-31T02:31:16.617Z,5.28
2019-03-31T02:32:24.249Z,5.17
2019-03-31T02:33:16.704Z,5.22
2019-03-31T02:34:16.774Z,5.20
2019-03-31T02:35:16.788Z,5.19
2019-03-31T02:36:16.855Z,5.19
2019-03-31T02:37:16.876Z,5.17
2019-03-31T02:38:16.927Z,5.20
2019-03-31T02:39:16.993Z,5.14
2019-03-31T02:40:17.005Z,5.16
2019-03-31T02:41:17.051Z,5.16
2019-03-31T02:42:17.092Z,5.19
2019-03-31T02:43:17.138Z,5.12
2019-03-31T02:44:17.201Z,5.22
2019-03-31T02:45:17.218Z,5.28
2019-03-31T02:46:17.415Z,5.19
2019-03-31T02:47:17.307Z,5.28
2019-03-31T02:48:17.346Z,5.27
2019-03-31T02:49:17.412Z,5.27
2019-03-31T02:50:17.433Z,5.23
2019-03-31T02:51:17.485Z,5.20
2019-03-31T02:52:17.515Z,5.16
2019-03-31T02:53:17.591Z,5.31
2019-03-31T02:54:17.628Z,5.30
2019-03-31T02:55:17.647Z,5.35
2019-03-31T02:56:17.693Z,5.27
2019-03-31T02:57:17.735Z,5.32
2019-03-31T02:58:17.784Z,5.32
2019-03-31T02:59:17.847Z,5.19
2019-03-31T03:00:17.895Z,5.20
2019-03-31T03:01:17.904Z,5.31
2019-03-31T03:02:17.958Z,5.20
2019-03-31T03:03:17.991Z,5.28
2019-03-31T03:04:18.082Z,5.19
2019-03-31T03:05:20.230Z,5.22
2019-03-31T03:06:18.123Z,5.25
2019-03-31T03:07:18.184Z,5.23
2019-03-31T03:08:18.204Z,5.20
2019-03-31T03:09:18.247Z,5.27
2019-03-31T03:10:18.308Z,5.37
2019-03-31T03:11:18.336Z,5.32
2019-03-31T03:12:18.376Z,5.30
2019-03-31T03:13:18.426Z,5.32
2019-03-31T03:14:18.493Z,5.34
2019-03-31T03:15:18.534Z,5.37
2019-03-31T03:16:18.559Z,5.37
2019-03-31T03:17:18.586Z,5.35
2019-03-31T03:18:18.638Z,5.32
2019-03-31T03:19:18.689Z,5.31
2019-03-31T03:20:18.739Z,5.34
2019-03-31T03:21:18.793Z,5.34
2019-03-31T03:22:18.813Z,5.34
2019-03-31T03:23:18.845Z,5.28
2019-03-31T03:24:18.893Z,5.28
2019-03-31T03:25:18.959Z,5.25
2019-03-31T03:26:18.974Z,5.22
2019-03-31T03:27:19.017Z,5.20
2019-03-31T03:28:19.061Z,5.12
2019-03-31T03:29:19.136Z,5.10
2019-03-31T03:30:19.269Z,4.98
2019-03-31T03:31:19.329Z,4.92
2019-03-31T03:32:19.246Z,4.92
2019-03-31T03:33:19.441Z,4.84
2019-03-31T03:34:19.344Z,4.79
2019-03-31T03:35:19.422Z,4.86
2019-03-31T03:36:19.409Z,4.77
2019-03-31T03:37:19.447Z,4.79
2019-03-31T03:38:19.499Z,4.75
2019-03-31T03:39:19.535Z,4.69
2019-03-31T03:40:19.615Z,4.64
2019-03-31T03:41:19.637Z,4.65
2019-03-31T03:42:19.659Z,4.72
2019-03-31T03:43:19.702Z,4.73
2019-03-31T03:44:19.753Z,4.76
2019-03-31T03:45:19.796Z,4.67
2019-03-31T03:46:19.862Z,4.67
2019-03-31T03:47:19.890Z,4.73
2019-03-31T03:48:19.939Z,4.72
2019-03-31T03:49:20.017Z,4.83
2019-03-31T03:50:20.015Z,4.83
2019-03-31T03:51:20.069Z,4.73
2019-03-31T03:52:20.084Z,4.83
2019-03-31T03:53:20.135Z,4.80
2019-03-31T03:54:20.189Z,4.70
2019-03-31T03:55:20.234Z,4.70
2019-03-31T03:56:20.290Z,4.73
2019-03-31T03:57:20.302Z,4.75
2019-03-31T03:58:20.345Z,4.72
2019-03-31T03:59:20.387Z,4.72
2019-03-31T04:00:20.429Z,4.72
2019-03-31T04:01:20.504Z,4.69
2019-03-31T04:02:20.540Z,4.67
2019-03-31T04:03:29.989Z,4.57
2019-03-31T04:04:20.599Z,4.62
2019-03-31T04:05:20.639Z,4.51
2019-03-31T04:06:20.770Z,4.47
2019-03-31T04:07:20.748Z,4.55
2019-03-31T04:08:20.775Z,4.47
2019-03-31T04:09:20.812Z,4.40
2019-03-31T04:10:20.861Z,4.46
2019-03-31T04:11:21.732Z,4.47
2019-03-31T04:12:20.965Z,4.51
2019-03-31T04:13:20.984Z,4.43
2019-03-31T04:14:21.026Z,4.34
2019-03-31T04:15:21.064Z,4.39
2019-03-31T04:16:21.130Z,4.42
2019-03-31T04:17:21.177Z,4.28
2019-03-31T04:18:21.196Z,4.25
2019-03-31T04:19:21.234Z,4.19
2019-03-31T04:20:21.274Z,4.06
2019-03-31T04:21:21.318Z,4.01
2019-03-31T04:22:21.406Z,4.00
2019-03-31T04:23:21.403Z,3.98
2019-03-31T04:24:21.465Z,3.88
2019-03-31T04:25:21.504Z,3.94
2019-03-31T04:26:21.544Z,3.97
2019-03-31T04:27:21.594Z,4.01
2019-03-31T04:28:21.617Z,3.89
2019-03-31T04:29:21.663Z,3.96
2019-03-31T04:30:21.705Z,3.97
2019-03-31T04:31:21.740Z,3.96
2019-03-31T04:32:21.809Z,3.90
2019-03-31T04:33:21.825Z,3.97
2019-03-31T04:34:21.870Z,3.92
2019-03-31T04:35:21.911Z,3.88
2019-03-31T04:36:21.958Z,3.88
2019-03-31T04:37:22.009Z,3.85
2019-03-31T04:38:22.044Z,3.89
2019-03-31T04:39:22.076Z,3.82
2019-03-31T04:40:22.170Z,3.89
2019-03-31T04:41:22.173Z,3.88
2019-03-31T04:42:22.219Z,3.78
2019-03-31T04:43:22.248Z,3.72
2019-03-31T04:44:22.288Z,3.64
2019-03-31T04:45:22.328Z,3.54
2019-03-31T04:46:22.371Z,3.53
2019-03-31T04:47:22.441Z,3.57
2019-03-31T04:48:22.475Z,3.52
2019-03-31T04:49:22.498Z,3.60
2019-03-31T04:50:22.541Z,3.54
2019-03-31T04:51:22.591Z,3.39
2019-03-31T04:52:22.660Z,3.42
2019-03-31T04:53:22.662Z,3.34
2019-03-31T04:54:22.707Z,3.30
2019-03-31T04:55:22.750Z,3.18
2019-03-31T04:56:22.788Z,3.20
2019-03-31T04:57:22.849Z,3.21
2019-03-31T04:58:22.897Z,3.18
2019-03-31T04:59:22.924Z,3.20
2019-03-31T05:00:22.957Z,3.18
2019-03-31T05:01:22.999Z,3.18
2019-03-31T05:02:23.041Z,3.16
2019-03-31T05:03:23.101Z,3.13
2019-03-31T05:04:23.130Z,3.18
2019-03-31T05:05:23.169Z,3.27
2019-03-31T05:06:23.206Z,3.36
2019-03-31T05:07:23.247Z,3.33
2019-03-31T05:08:23.308Z,3.43
2019-03-31T05:09:23.331Z,3.40
2019-03-31T05:10:23.373Z,3.58
2019-03-31T05:11:23.417Z,3.47
2019-03-31T05:12:23.457Z,3.49
2019-03-31T05:13:23.520Z,3.58
2019-03-31T05:14:23.539Z,3.49
2019-03-31T05:15:23.587Z,3.39
2019-03-31T05:16:23.627Z,3.36
2019-03-31T05:17:23.662Z,3.36
2019-03-31T05:18:23.732Z,3.36
2019-03-31T05:19:23.758Z,3.39
2019-03-31T05:20:23.789Z,3.53
2019-03-31T05:21:23.844Z,3.46
2019-03-31T05:22:23.875Z,3.49
2019-03-31T05:23:23.941Z,3.54
2019-03-31T05:24:23.968Z,3.68
2019-03-31T05:25:24.002Z,3.70
2019-03-31T05:26:24.043Z,3.65
2019-03-31T05:27:24.089Z,3.68
2019-03-31T05:28:24.167Z,3.65
2019-03-31T05:29:24.190Z,3.68
2019-03-31T05:30:24.205Z,3.57
2019-03-31T05:31:24.250Z,3.57
2019-03-31T05:32:24.293Z,3.65
2019-03-31T05:33:24.351Z,3.70
2019-03-31T05:34:24.391Z,3.72
2019-03-31T05:35:26.897Z,3.71
2019-03-31T05:36:24.461Z,3.75
2019-03-31T05:37:24.500Z,3.76
2019-03-31T05:38:24.560Z,3.78
2019-03-31T05:39:24.608Z,3.78
2019-03-31T05:40:24.622Z,3.68
2019-03-31T05:41:24.669Z,3.65
2019-03-31T05:42:24.731Z,3.64
2019-03-31T05:43:24.752Z,3.60
2019-03-31T05:44:24.815Z,3.65
2019-03-31T05:45:24.851Z,3.79
2019-03-31T05:46:24.876Z,3.78
2019-03-31T05:47:24.917Z,3.80
2019-03-31T05:48:24.954Z,3.88
2019-03-31T05:49:25.018Z,3.82
2019-03-31T05:50:25.052Z,3.89
2019-03-31T05:51:25.191Z,3.86
2019-03-31T05:52:25.123Z,3.76
2019-03-31T05:53:25.167Z,3.78
2019-03-31T05:54:25.230Z,3.80
2019-03-31T05:55:25.270Z,3.80
2019-03-31T05:56:25.291Z,3.78
2019-03-31T05:57:25.332Z,3.78
2019-03-31T05:58:25.452Z,3.94
2019-03-31T05:59:25.422Z,3.94
2019-03-31T06:00:25.492Z,4.00
2019-03-31T06:01:25.499Z,4.01
2019-03-31T06:02:25.542Z,4.14
2019-03-31T06:03:25.584Z,4.16
2019-03-31T06:04:32.962Z,4.16
2019-03-31T06:05:25.695Z,4.28
2019-03-31T06:06:25.717Z,4.34
2019-03-31T06:07:25.764Z,4.32
2019-03-31T06:08:25.791Z,4.36
2019-03-31T06:09:25.860Z,4.47
2019-03-31T06:10:25.882Z,4.55
2019-03-31T06:11:25.921Z,4.64
2019-03-31T06:12:26.017Z,4.67
2019-03-31T06:13:26.007Z,4.76
2019-03-31T06:14:26.069Z,4.79
2019-03-31T06:15:26.090Z,4.91
2019-03-31T06:16:26.130Z,4.94
2019-03-31T06:17:26.175Z,4.95
2019-03-31T06:18:26.221Z,5.04
2019-03-31T06:19:26.325Z,5.16
2019-03-31T06:20:26.306Z,5.23
2019-03-31T06:21:29.102Z,5.35
2019-03-31T06:22:26.388Z,5.34
2019-03-31T06:23:26.436Z,5.35
2019-03-31T06:24:26.498Z,5.40
2019-03-31T06:25:26.518Z,5.50
2019-03-31T06:26:26.623Z,5.60
2019-03-31T06:27:26.608Z,5.60
2019-03-31T06:28:26.654Z,5.81
2019-03-31T06:29:26.700Z,5.83
2019-03-31T06:30:26.754Z,6.04
2019-03-31T06:31:26.800Z,6.22
2019-03-31T06:32:26.822Z,6.36
2019-03-31T06:33:26.857Z,6.50
2019-03-31T06:34:26.907Z,6.58
2019-03-31T06:35:26.954Z,6.72
2019-03-31T06:36:27.009Z,6.83
2019-03-31T06:37:27.034Z,6.90
2019-03-31T06:38:27.082Z,6.94
2019-03-31T06:39:27.121Z,7.02
2019-03-31T06:40:27.197Z,7.09
2019-03-31T06:41:27.228Z,7.26
2019-03-31T06:42:27.258Z,7.37
2019-03-31T06:43:27.310Z,7.45
2019-03-31T06:44:27.361Z,7.62
2019-03-31T06:45:27.395Z,7.74
2019-03-31T06:46:27.441Z,7.82
2019-03-31T06:47:27.488Z,7.94
2019-03-31T06:48:27.515Z,8.08
2019-03-31T06:49:27.572Z,8.36
2019-03-31T06:50:27.611Z,8.91
2019-03-31T06:51:27.663Z,9.34
2019-03-31T06:52:27.712Z,9.61
2019-03-31T06:53:27.733Z,9.81
2019-03-31T06:54:27.785Z,10.28
2019-03-31T06:55:27.823Z,10.39
2019-03-31T06:56:27.875Z,10.24
2019-03-31T06:57:27.942Z,10.12
2019-03-31T06:58:27.956Z,9.96
2019-03-31T06:59:28.005Z,10.06
2019-03-31T07:00:28.058Z,10.06
2019-03-31T07:01:28.093Z,10.15
2019-03-31T07:02:28.158Z,10.66
2019-03-31T07:03:28.204Z,11.32
2019-03-31T07:04:28.230Z,12.06
2019-03-31T07:05:28.279Z,12.30
2019-03-31T07:06:28.323Z,12.39
2019-03-31T07:07:28.518Z,13.20
2019-03-31T07:08:28.416Z,13.99
2019-03-31T07:09:28.466Z,14.13
2019-03-31T07:10:28.505Z,14.38
2019-03-31T07:11:28.553Z,14.90
2019-03-31T07:12:28.621Z,14.81
2019-03-31T07:13:28.646Z,14.86
2019-03-31T07:14:28.697Z,14.50
2019-03-31T07:15:28.750Z,14.34
2019-03-31T07:16:28.801Z,14.28
2019-03-31T07:17:28.863Z,14.42
2019-03-31T07:18:28.896Z,14.99
2019-03-31T07:19:28.940Z,15.12
2019-03-31T07:20:29.002Z,15.52
2019-03-31T07:21:29.048Z,15.30
2019-03-31T07:22:29.100Z,14.98
2019-03-31T07:23:29.149Z,15.51
2019-03-31T07:24:29.187Z,15.15
2019-03-31T07:25:29.231Z,14.83
2019-03-31T07:26:29.285Z,14.67
2019-03-31T07:27:29.318Z,14.71
2019-03-31T07:28:29.400Z,14.28
2019-03-31T07:29:29.421Z,14.60
2019-03-31T07:30:29.467Z,14.69
2019-03-31T07:31:29.519Z,14.91
2019-03-31T07:32:29.667Z,15.56
2019-03-31T07:33:29.630Z,15.74
2019-03-31T07:34:29.665Z,14.98
2019-03-31T07:35:29.729Z,14.95
2019-03-31T07:36:29.755Z,14.60
2019-03-31T07:37:29.809Z,14.19
2019-03-31T07:38:38.873Z,13.79
2019-03-31T07:39:30.291Z,13.61
2019-03-31T07:40:29.950Z,13.22
2019-03-31T07:41:30.368Z,13.18
2019-03-31T07:42:30.208Z,13.27
2019-03-31T07:43:30.100Z,13.83
2019-03-31T07:44:30.201Z,14.34
2019-03-31T07:45:30.199Z,14.67
2019-03-31T07:46:30.248Z,14.80
2019-03-31T07:47:30.304Z,14.75
2019-03-31T07:48:30.367Z,14.27
2019-03-31T07:49:30.421Z,14.25
2019-03-31T07:50:30.503Z,14.16
2019-03-31T07:51:30.492Z,13.81
2019-03-31T07:52:30.542Z,14.19
2019-03-31T07:53:30.615Z,14.93
2019-03-31T07:54:30.642Z,15.72
2019-03-31T07:55:30.688Z,16.03
2019-03-31T07:56:30.737Z,15.67
2019-03-31T07:57:30.795Z,15.17
2019-03-31T07:58:30.857Z,15.26
2019-03-31T07:59:30.908Z,14.53
2019-03-31T08:00:30.936Z,14.29
2019-03-31T08:01:30.994Z,14.35
2019-03-31T08:02:31.037Z,14.62
2019-03-31T08:03:31.100Z,14.95
2019-03-31T08:04:31.175Z,15.27
2019-03-31T08:05:33.330Z,15.52
2019-03-31T08:06:31.255Z,15.41
2019-03-31T08:07:31.284Z,15.27
2019-03-31T08:08:31.334Z,15.23
2019-03-31T08:09:31.411Z,14.95
2019-03-31T08:10:32.290Z,15.36
2019-03-31T08:11:31.484Z,15.51
2019-03-31T08:12:31.535Z,15.15
2019-03-31T08:13:31.586Z,15.15
2019-03-31T08:14:31.658Z,14.94
2019-03-31T08:15:31.698Z,14.60
2019-03-31T08:16:31.734Z,15.12
2019-03-31T08:17:31.788Z,15.57
2019-03-31T08:18:31.832Z,15.19
2019-03-31T08:19:31.916Z,15.11
2019-03-31T08:20:31.952Z,15.08
2019-03-31T08:21:32.007Z,15.17
2019-03-31T08:22:32.034Z,15.02
2019-03-31T08:23:32.084Z,14.67
2019-03-31T08:24:32.251Z,14.37
2019-03-31T08:25:32.183Z,13.94
2019-03-31T08:26:32.233Z,13.79
2019-03-31T08:27:32.287Z,13.87
2019-03-31T08:28:32.335Z,14.39
2019-03-31T08:29:32.407Z,14.21
2019-03-31T08:30:32.455Z,14.29
2019-03-31T08:31:32.523Z,14.34
2019-03-31T08:32:32.535Z,14.34
2019-03-31T08:33:32.588Z,13.77
2019-03-31T08:34:32.644Z,13.91
2019-03-31T08:35:46.245Z,14.35
2019-03-31T08:36:35.272Z,15.19
2019-03-31T08:37:32.792Z,15.42
2019-03-31T08:38:32.836Z,15.89
2019-03-31T08:39:32.895Z,16.04
2019-03-31T08:40:32.972Z,16.14
2019-03-31T08:41:32.988Z,16.22
2019-03-31T08:42:33.037Z,16.15
2019-03-31T08:43:33.085Z,15.94
2019-03-31T08:44:33.158Z,16.20
2019-03-31T08:45:33.211Z,15.93
2019-03-31T08:46:33.240Z,15.82
2019-03-31T08:47:33.295Z,16.04
2019-03-31T08:48:33.338Z,15.52
2019-03-31T08:49:33.392Z,15.96
2019-03-31T08:50:35.006Z,16.15
2019-03-31T08:51:33.503Z,15.78
2019-03-31T08:52:33.546Z,15.89
2019-03-31T08:53:33.608Z,16.25
2019-03-31T08:54:33.646Z,16.31
2019-03-31T08:55:33.719Z,16.09
2019-03-31T08:56:33.758Z,15.76
2019-03-31T08:57:33.802Z,15.41
2019-03-31T08:58:33.862Z,15.05
2019-03-31T08:59:33.914Z,15.31
2019-03-31T09:00:33.991Z,14.60
2019-03-31T09:01:34.009Z,14.17
2019-03-31T09:02:34.065Z,14.43
2019-03-31T09:03:34.111Z,14.46
2019-03-31T09:04:34.158Z,14.29
2019-03-31T09:05:34.332Z,13.84
2019-03-31T09:06:34.266Z,13.99
2019-03-31T09:07:34.319Z,14.31
2019-03-31T09:08:34.362Z,14.16
2019-03-31T09:09:34.409Z,14.56
2019-03-31T09:10:34.486Z,14.75
2019-03-31T09:11:34.540Z,15.12
2019-03-31T09:12:34.561Z,15.11
2019-03-31T09:13:34.620Z,15.03
2019-03-31T09:14:34.670Z,15.09
2019-03-31T09:15:34.718Z,14.87
2019-03-31T09:16:34.783Z,14.57
2019-03-31T09:17:34.818Z,14.75
2019-03-31T09:18:34.897Z,14.57
2019-03-31T09:19:34.943Z,14.29
2019-03-31T09:20:34.968Z,14.43
2019-03-31T09:21:35.046Z,14.65
2019-03-31T09:22:35.081Z,14.74
2019-03-31T09:23:35.133Z,14.67
2019-03-31T09:24:35.180Z,15.06
2019-03-31T09:25:35.226Z,15.54
2019-03-31T09:26:35.320Z,16.23
2019-03-31T09:27:35.325Z,16.86
2019-03-31T09:28:35.377Z,17.36
2019-03-31T09:29:35.424Z,17.59
2019-03-31T09:30:35.474Z,17.92
2019-03-31T09:31:35.555Z,17.79
2019-03-31T09:32:35.580Z,18.25
2019-03-31T09:33:39.205Z,18.49
2019-03-31T09:34:35.695Z,18.91
2019-03-31T09:35:35.750Z,18.37
2019-03-31T09:36:35.826Z,17.89
2019-03-31T09:37:35.846Z,17.88
2019-03-31T09:38:35.907Z,17.95
2019-03-31T09:39:35.945Z,17.32
2019-03-31T09:40:35.995Z,16.63
2019-03-31T09:41:36.073Z,16.77
2019-03-31T09:42:36.141Z,16.90
2019-03-31T09:43:36.156Z,16.99
2019-03-31T09:44:36.264Z,16.73
2019-03-31T09:45:36.268Z,15.76
2019-03-31T09:46:36.353Z,15.36
2019-03-31T09:47:36.378Z,14.67
2019-03-31T09:48:36.417Z,14.42
2019-03-31T09:49:36.479Z,14.47
2019-03-31T09:50:36.520Z,13.92
2019-03-31T09:51:36.602Z,14.56
2019-03-31T09:52:36.663Z,14.19
2019-03-31T09:53:36.686Z,14.49
2019-03-31T09:54:36.726Z,15.02
2019-03-31T09:55:36.787Z,15.56
2019-03-31T09:56:36.838Z,15.08
2019-03-31T09:57:36.909Z,14.52
2019-03-31T09:58:36.940Z,14.64
2019-03-31T09:59:36.995Z,14.93
2019-03-31T10:00:37.042Z,15.23
2019-03-31T10:01:37.114Z,15.74
2019-03-31T10:02:37.174Z,15.57
2019-03-31T10:03:37.196Z,15.67
2019-03-31T10:04:37.249Z,16.00
2019-03-31T10:05:37.300Z,16.62
2019-03-31T10:06:37.346Z,15.97
2019-03-31T10:07:37.449Z,15.30
2019-03-31T10:08:37.455Z,14.69
2019-03-31T10:09:37.506Z,14.68
2019-03-31T10:10:37.567Z,14.54
2019-03-31T10:11:37.718Z,14.09
2019-03-31T10:12:37.679Z,14.20
2019-03-31T10:13:37.715Z,14.29
2019-03-31T10:14:37.761Z,14.31
2019-03-31T10:15:37.812Z,14.19
2019-03-31T10:16:37.862Z,14.17
2019-03-31T10:17:37.943Z,14.27
2019-03-31T10:18:38.033Z,14.81
2019-03-31T10:19:38.018Z,15.01
2019-03-31T10:20:38.070Z,14.99
2019-03-31T10:21:38.126Z,15.12
2019-03-31T10:22:38.181Z,15.38
2019-03-31T10:23:38.239Z,15.11
2019-03-31T10:24:38.273Z,15.11
2019-03-31T10:25:38.329Z,15.57
2019-03-31T10:26:38.378Z,15.97
2019-03-31T10:27:38.433Z,16.45
2019-03-31T10:28:38.513Z,16.58
2019-03-31T10:29:38.541Z,16.37
2019-03-31T10:30:38.583Z,16.01
2019-03-31T10:31:38.649Z,15.38
2019-03-31T10:32:38.683Z,15.26
2019-03-31T10:33:38.774Z,15.17
2019-03-31T10:34:38.788Z,14.74
2019-03-31T10:35:38.842Z,14.29
2019-03-31T10:36:44.595Z,14.50
2019-03-31T10:37:38.945Z,15.11
2019-03-31T10:38:39.028Z,15.85
2019-03-31T10:39:39.072Z,16.56
2019-03-31T10:40:39.094Z,17.23
2019-03-31T10:41:39.154Z,16.89
2019-03-31T10:42:39.211Z,16.71
2019-03-31T10:43:39.273Z,15.78
2019-03-31T10:44:39.323Z,15.02
2019-03-31T10:45:39.359Z,14.72
2019-03-31T10:46:39.410Z,14.78
2019-03-31T10:47:39.453Z,14.81
2019-03-31T10:48:39.526Z,14.37
2019-03-31T10:49:39.589Z,14.32
2019-03-31T10:50:39.612Z,14.60
2019-03-31T10:51:39.666Z,15.06
2019-03-31T10:52:39.716Z,14.64
2019-03-31T10:53:39.773Z,14.56
2019-03-31T10:54:39.840Z,14.83
2019-03-31T10:55:39.866Z,14.93
2019-03-31T10:56:39.921Z,14.68
2019-03-31T10:57:39.969Z,14.21
2019-03-31T10:58:40.036Z,14.32
2019-03-31T10:59:40.160Z,14.39
2019-03-31T11:00:40.127Z,14.37
2019-03-31T11:01:40.184Z,14.29
2019-03-31T11:02:40.243Z,14.31
2019-03-31T11:03:40.275Z,14.47
2019-03-31T11:04:40.354Z,14.46
2019-03-31T11:05:40.377Z,14.90
2019-03-31T11:06:40.438Z,14.80
2019-03-31T11:07:40.478Z,14.67
2019-03-31T11:08:40.581Z,14.62
2019-03-31T11:09:40.618Z,14.62
2019-03-31T11:10:40.644Z,14.94
2019-03-31T11:11:40.684Z,15.26
2019-03-31T11:12:40.735Z,15.74
2019-03-31T11:13:40.793Z,15.93
2019-03-31T11:14:40.862Z,16.04
2019-03-31T11:15:40.891Z,15.97
2019-03-31T11:16:40.940Z,15.72
2019-03-31T11:17:41.105Z,15.46
2019-03-31T11:18:41.047Z,15.36
2019-03-31T11:19:41.124Z,15.15
2019-03-31T11:20:41.166Z,14.95
2019-03-31T11:21:41.194Z,14.35
2019-03-31T11:22:41.253Z,14.29
2019-03-31T11:23:41.306Z,14.57
2019-03-31T11:24:41.359Z,14.71
2019-03-31T11:25:41.433Z,14.84
2019-03-31T11:26:41.463Z,14.62
2019-03-31T11:27:43.845Z,14.54
2019-03-31T11:28:41.555Z,14.68
2019-03-31T11:29:41.613Z,14.74
2019-03-31T11:30:41.687Z,14.57
2019-03-31T11:31:41.757Z,14.21
2019-03-31T11:32:41.771Z,14.54
2019-03-31T11:33:41.808Z,14.47
2019-03-31T11:34:41.874Z,14.80
2019-03-31T11:35:41.940Z,14.72
2019-03-31T11:36:41.974Z,14.80
2019-03-31T11:37:42.017Z,15.15
2019-03-31T11:38:42.079Z,15.94
2019-03-31T11:39:42.122Z,16.81
2019-03-31T11:40:42.205Z,17.41
2019-03-31T11:41:42.256Z,17.53
2019-03-31T11:42:42.284Z,17.13
2019-03-31T11:43:42.334Z,16.60
2019-03-31T11:44:42.380Z,16.55
2019-03-31T11:45:42.434Z,16.77
2019-03-31T11:46:42.514Z,16.80
2019-03-31T11:47:42.536Z,16.23
2019-03-31T11:48:42.592Z,15.96
2019-03-31T11:49:42.754Z,15.56
2019-03-31T11:50:42.706Z,15.92
2019-03-31T11:51:42.781Z,15.45
2019-03-31T11:52:42.819Z,15.20
2019-03-31T11:53:42.856Z,15.15
2019-03-31T11:54:45.809Z,15.51
2019-03-31T11:55:42.960Z,15.72
2019-03-31T11:56:43.042Z,15.35
2019-03-31T11:57:43.066Z,15.57
2019-03-31T11:58:43.181Z,14.95
2019-03-31T11:59:43.171Z,14.86
2019-03-31T12:00:43.222Z,14.61
2019-03-31T12:01:43.286Z,14.60
2019-03-31T12:02:43.334Z,15.05
2019-03-31T12:03:43.373Z,15.82
2019-03-31T12:04:43.424Z,16.68
2019-03-31T12:05:43.494Z,17.36
2019-03-31T12:06:43.575Z,17.95
2019-03-31T12:07:47.168Z,18.34
2019-03-31T12:08:43.631Z,18.00
2019-03-31T12:09:43.714Z,16.98
2019-03-31T12:10:43.739Z,16.52
2019-03-31T12:11:45.665Z,16.16
2019-03-31T12:12:43.863Z,16.50
2019-03-31T12:13:43.904Z,16.78
2019-03-31T12:14:43.953Z,16.99
2019-03-31T12:15:44.007Z,17.59
2019-03-31T12:16:44.195Z,18.12
2019-03-31T12:17:44.126Z,18.76
2019-03-31T12:18:44.169Z,18.67
2019-03-31T12:19:44.218Z,18.50
2019-03-31T12:20:44.273Z,18.36
2019-03-31T12:21:44.324Z,18.13
2019-03-31T12:22:44.407Z,18.02
2019-03-31T12:23:44.436Z,18.27
2019-03-31T12:24:44.489Z,18.82
2019-03-31T12:25:44.539Z,19.35
2019-03-31T12:26:44.630Z,20.05
2019-03-31T12:27:44.667Z,20.33
2019-03-31T12:28:44.699Z,20.38
2019-03-31T12:29:44.752Z,20.69
2019-03-31T12:30:44.808Z,19.86
2019-03-31T12:31:44.864Z,18.83
2019-03-31T12:32:44.954Z,18.70
2019-03-31T12:33:44.970Z,18.15
2019-03-31T12:34:45.056Z,18.04
2019-03-31T12:35:45.081Z,17.79
2019-03-31T12:36:45.136Z,17.84
2019-03-31T12:37:45.210Z,18.24
2019-03-31T12:38:45.249Z,18.73
2019-03-31T12:39:45.310Z,19.02
2019-03-31T12:40:45.358Z,19.53
2019-03-31T12:41:45.412Z,20.05
2019-03-31T12:42:45.489Z,20.47
2019-03-31T12:43:45.540Z,20.20
2019-03-31T12:44:45.586Z,19.51
2019-03-31T12:45:45.646Z,18.80
2019-03-31T12:46:45.686Z,18.82
2019-03-31T12:47:45.763Z,18.55
2019-03-31T12:48:45.822Z,18.07
2019-03-31T12:49:45.854Z,17.36
2019-03-31T12:50:45.912Z,17.43
2019-03-31T12:51:45.967Z,17.71
2019-03-31T12:52:48.207Z,18.31
2019-03-31T12:53:46.077Z,18.83
2019-03-31T12:54:46.133Z,18.86
2019-03-31T12:55:59.165Z,18.86
2019-03-31T12:56:46.241Z,18.36
2019-03-31T12:57:46.326Z,18.17
2019-03-31T12:58:46.372Z,18.00
2019-03-31T12:59:46.410Z,18.37
2019-03-31T13:00:46.468Z,18.54
2019-03-31T13:01:46.521Z,18.36
2019-03-31T13:02:46.577Z,18.61
2019-03-31T13:03:46.665Z,18.76
2019-03-31T13:04:46.695Z,18.91
2019-03-31T13:05:46.744Z,19.10
2019-03-31T13:06:46.808Z,18.80